AirNav  
 
 960 users online  

7K5 Kenmare Municipal Airport
Kenmare, North Dakota, USA

GOING TO KENMARE?


FAA INFORMATION EFFECTIVE 25 MARCH 2021

Location

FAA Identifier: 7K5
Lat/Long: 48-40-03.4050N 102-02-52.8100W
48-40.056750N 102-02.880167W
48.6676125,-102.0480028
(estimated)
Elevation: 1962 ft. / 598.0 m (surveyed)
Variation: 10E (2000)
From city: 1 mile SE of KENMARE, ND
Time zone: UTC -5 (UTC -6 during Standard Time)
Zip code: 58746

Airport Operations

Airport use: Open to the public
Activation date: 10/1968
Control tower: no
ARTCC: MINNEAPOLIS CENTER
FSS: GRAND FORKS FLIGHT SERVICE STATION
NOTAMs facility: GFK (NOTAM-D service available)
Attendance: UNATNDD
Wind indicator: lighted
Segmented circle: yes
Lights: ACTVT PAPI RY 08/26; MIRL RY 08/26 - CTAF.
Beacon: white-green (lighted land airport)
SS-SR. BCN OTS INDEF.

Airport Communications

CTAF/UNICOM: 122.8
MINOT APPROACH: 119.6 [OPR H24 FM 1200Z++MON THRU 0530Z++SAT; SAT AND SUN 1200-0530Z++; CLSD HOL.]
MINOT DEPARTURE: 119.6 [OPR H24 FM 1200Z++MON THRU 0530Z++SAT; SAT AND SUN 1200-0530Z++; CLSD HOL.]
  • APCH/DEP SVC PRVDD BY MINNEAPOLIS ARTCC ON FREQS 127.6/279.6 ( MINOT RCAG) WHEN MINOT APCH CTL CLSD.

Nearby radio navigation aids

VOR radial/distance  VOR name  Freq  Var
MOTr296/38.9MINOT VOR/DME117.1013E

Airport Services

Fuel available: 100LL
24-HR SELF- SERVICE FUEL AVBL WITH CREDIT CARD.
Parking: tiedowns
Bottled oxygen: NONE
Bulk oxygen: NONE

Runway Information

Runway 8/26

Dimensions: 3700 x 60 ft. / 1128 x 18 m
Surface: asphalt, in good condition
Weight bearing capacity: 
Single wheel: 12.0
Runway edge lights: medium intensity
RUNWAY 8  RUNWAY 26
Latitude: 48-40.056333N48-40.057167N
Longitude: 102-03.339333W102-02.421000W
Elevation: 1962.0 ft.1955.0 ft.
Traffic pattern: leftleft
Runway heading: 080 magnetic, 090 true260 magnetic, 270 true
Markings: nonprecision, in good conditionnonprecision, in good condition
Visual slope indicator: 2-light PAPI on left (3.00 degrees glide path)2-light PAPI on left (3.00 degrees glide path)
Runway end identifier lights: yesyes
Touchdown point: yes, no lightsyes, no lights
Obstructions: 40 ft. pole, 1260 ft. from runway, 50 ft. left of centerline, 26:1 slope to clear
ALSO +30 FT BLDGS 1300 FT FM THLD & 25 FT R OF EXTDD CNTRLN; +254 FT TWR 8000 FT FM THLD.
none
CLSD ROAD 360 FT FM THLD ON EXTENDED CENTERLINE.

Airport Ownership and Management from official FAA records

Ownership: Publicly-owned
Owner: KENMARE ARPT AUTH
BOX 326
KENMARE, ND 58746
Phone 701-848-6322
Manager: HANK BODMER
BOX 326
KENMARE, ND 58746
Phone 701-848-6322
ADDITONAL PHONE MARK GRAVESEN 701-385-4074.

Airport Operational Statistics

Aircraft based on the field: 31
Single engine airplanes: 31
    
Aircraft operations: avg 65/week *
59% local general aviation
32% transient general aviation
9% air taxi
* for 12-month period ending 24 January 2018

Additional Remarks

CONFIRM WINTER CONDITIONS & SNOW REMOVAL WITH AMGR 701-848-6322.
WILDLIFE REFUGE LCTD 3500 FT W.
WATERFOWL ON OR INVOF ARPT.
FOR CD CTC MINNEAPOLIS ARTCC AT 651-463-5588.

Instrument Procedures

NOTE: All procedures below are presented as PDF files. If you need a reader for these files, you should download the free Adobe Reader.

NOT FOR NAVIGATION. Please procure official charts for flight.
FAA instrument procedures published for use from 25 March 2021 at 0901Z to 22 April 2021 at 0900z.

 
IAPs - Instrument Approach Procedures
RNAV (GPS) RWY 26   download (192KB)
NOTE: Special Take-Off Minimums/Departure Procedures apply   download (156KB)

Other nearby airports with instrument procedures:

KHBC - Mohall Municipal Airport (21 nm E)
08D - Stanley Municipal Airport (26 nm SW)
KMIB - Minot Air Force Base (31 nm SE)
D60 - Tioga Municipal Airport (38 nm SW)
KMOT - Minot International Airport (39 nm SE)
 
Loc | Ops | Rwys | IFR | FBO | Links
Com | Nav | Svcs | Stats | Notes

Bismarck Aero Center
AirBoss

 
Area around 7K5 (Kenmare Municipal Airport)
 
Road maps at: MapQuest Bing Google
 
Aerial photo
WARNING: Photo may not be current or correct
Aerial photo of 7K5 (Kenmare Municipal Airport)
Do you have a better or more recent aerial photo of Kenmare Municipal Airport that you would like to share? If so, please send us your photo.

 
Sectional chart

 
Airport distance calculator
Flying to Kenmare Municipal Airport? Find the distance to fly.

From to 7K5

Sunrise and sunset
Times for 15-Apr-2021
 Local
(UTC-5)
 Zulu
(UTC)
Morning civil twilight06:2511:25
Sunrise06:5811:58
Sunset20:3801:38
Evening civil twilight21:1102:11

Current date and time
Zulu (UTC)  15-Apr-2021 12:35:17
Local (UTC-5)  15-Apr-2021 07:35:17
 
METAR
K08D 
26nm SW 
151215Z AUTO 30005KT 10SM OVC024 M02/M02 A3030 RMK AO2
KMIB 
32nm SE 
151156Z 32005KT 10SM OVC022 M01/M02 A3030 RMK SLP289 T10091022 11006 21009 57006 $
KD60 
38nm SW 
151215Z AUTO 31005KT 10SM BKN013 BKN020 OVC075 M03/M03 A3031 RMK AO2
KMOT 
40nm SE 
151154Z 29007KT 10SM OVC018 00/M03 A3030 RMK AO2 SLP285 T00001028 10000 21006 58007 $
CYEN 
49nm NW 
151200Z AUTO 23006KT 9SM OVC081 M03/M04 A3030 RMK SLP294
TAF
KMIB 
32nm SE 
150900Z 1509/1615 VRB06KT 9999 OVC020 620206 QNH3031INS BECMG 1605/1606 01009KT 9999 OVC030 620305 QNH3023INS BECMG 1612/1613 33009KT 8000 -RASN OVC010 620109 QNH3032INS TX03/1600Z TNM02/1513Z
KMOT 
40nm SE 
151120Z 1512/1612 31007KT P6SM OVC015 FM152300 35008KT P6SM BKN010 FM160400 33005KT P6SM OVC008 FM160600 32005KT P6SM OVC004
NOTAMs
Click for the latest NOTAMs
NOTAMs are issued by the DoD/FAA and will open in a separate window not controlled by AirNav.

 

 
 

FBO, Fuel Providers, and Aircraft Ground Support

  
 Business Name 
 
 Contact 
 
 Services / Description 
 
Fuel Prices
 
Comments
  
Kenmare Municipal Airport 701-385-9335
no information available

If you are affiliated with Kenmare Municipal Airport and would like to show here your services, contact info, web link, logo, and more, click here
100LL
PS $5.00 
 Updated 09-Apr-2021
 
   write
PS=Pump service
Update Fuel Prices
 

Would you like to see your business listed on this page?

 If your business provides an interesting product or service to pilots, flight crews, aircraft, or users of the Kenmare Municipal Airport, you should consider listing it here.  To start the listing process, click on the button below
 
Add a business
 

Other Pages about Kenmare Municipal Airport

www.kenmarend.com/...
 
Update a link
 
Copyright © AirNav, LLC. All rights reserved. Privacy Policy  Contact